Time,TemperatureF,DewpointF,PressureIn,WindDirection,WindDirectionDegrees,WindSpeedMPH,WindSpeedGustMPH,Humidity,HourlyPrecipIn,Conditions,Clouds,dailyrainin,SoftwareType,DateUTC
2013-06-19 00:01:00,61.9,61.0,29.90,NE,41,2.0,2.0,97,0.00,,,0.00,meteohub,2013-06-19 04:01:00,
2013-06-19 00:02:00,61.9,61.0,29.90,NNE,30,0.0,1.0,97,0.00,,,0.00,meteohub,2013-06-19 04:02:00,
2013-06-19 00:07:00,61.9,60.8,29.90,NNE,17,0.0,2.0,96,0.00,,,0.00,meteohub,2013-06-19 04:07:00,
2013-06-19 00:12:00,61.9,60.8,29.90,NNE,24,0.0,2.0,96,0.00,,,0.00,meteohub,2013-06-19 04:12:00,
2013-06-19 00:17:00,61.9,60.4,29.90,NNE,23,0.0,2.0,95,0.00,,,0.00,meteohub,2013-06-19 04:17:00,
2013-06-19 00:22:00,61.7,60.3,29.90,SW,222,0.0,2.0,95,0.00,,,0.00,meteohub,2013-06-19 04:22:00,
2013-06-19 00:27:00,61.9,60.4,29.90,WSW,250,0.0,4.0,95,0.00,,,0.00,meteohub,2013-06-19 04:27:00,
2013-06-19 00:32:00,61.9,60.4,29.91,West,264,0.0,4.0,95,0.00,,,0.00,meteohub,2013-06-19 04:32:00,
2013-06-19 00:37:00,61.5,60.1,29.91,SE,143,1.0,4.0,95,0.00,,,0.00,meteohub,2013-06-19 04:37:00,
2013-06-19 00:42:00,61.5,60.1,29.91,NW,309,0.0,3.0,95,0.00,,,0.00,meteohub,2013-06-19 04:42:00,
2013-06-19 00:47:00,61.9,59.9,29.91,SE,128,0.0,3.0,93,0.00,,,0.00,meteohub,2013-06-19 04:47:00,
2013-06-19 00:52:00,61.7,60.3,29.91,NW,304,0.0,3.0,95,0.00,,,0.00,meteohub,2013-06-19 04:52:00,
2013-06-19 00:57:00,61.3,59.5,29.90,NNW,328,0.0,3.0,94,0.00,,,0.00,meteohub,2013-06-19 04:57:00,
2013-06-19 01:02:00,61.2,59.7,29.90,NNW,327,0.0,2.0,95,0.00,,,0.00,meteohub,2013-06-19 05:02:00,
2013-06-19 01:07:00,61.2,59.7,29.90,NW,309,0.0,2.0,95,0.00,,,0.00,meteohub,2013-06-19 05:07:00,
2013-06-19 01:12:00,61.2,59.2,29.90,NW,315,0.0,2.0,93,0.00,,,0.00,meteohub,2013-06-19 05:12:00,
2013-06-19 01:17:00,61.2,58.8,29.90,NW,305,0.0,2.0,92,0.00,,,0.00,meteohub,2013-06-19 05:17:00,
2013-06-19 01:22:00,61.3,59.0,29.90,NNW,329,0.0,2.0,92,0.00,,,0.00,meteohub,2013-06-19 05:22:00,
2013-06-19 01:27:00,61.3,59.0,29.90,West,277,0.0,2.0,92,0.00,,,0.00,meteohub,2013-06-19 05:27:00,
2013-06-19 01:32:00,61.2,58.8,29.90,North,10,0.0,2.0,92,0.00,,,0.00,meteohub,2013-06-19 05:32:00,
2013-06-19 01:37:00,61.2,59.2,29.90,NE,53,0.0,4.0,93,0.00,,,0.00,meteohub,2013-06-19 05:37:00,
2013-06-19 01:42:00,61.2,59.2,29.90,North,353,0.0,4.0,93,0.00,,,0.00,meteohub,2013-06-19 05:42:00,
2013-06-19 01:47:00,61.2,58.8,29.90,North,356,0.0,4.0,92,0.00,,,0.00,meteohub,2013-06-19 05:47:00,
2013-06-19 01:52:00,61.2,59.2,29.90,WNW,293,0.0,3.0,93,0.00,,,0.00,meteohub,2013-06-19 05:52:00,
2013-06-19 01:57:00,61.2,58.8,29.90,SSE,151,0.0,3.0,92,0.00,,,0.00,meteohub,2013-06-19 05:57:00,
2013-06-19 02:02:00,61.2,59.2,29.90,NNW,348,0.0,3.0,93,0.00,,,0.00,meteohub,2013-06-19 06:02:00,
2013-06-19 02:07:00,61.0,59.0,29.90,NNW,343,0.0,3.0,93,0.00,,,0.00,meteohub,2013-06-19 06:07:00,
2013-06-19 02:12:00,61.0,58.3,29.90,NNW,329,0.0,3.0,91,0.00,,,0.00,meteohub,2013-06-19 06:12:00,
2013-06-19 02:17:00,61.2,58.8,29.90,NW,319,0.0,3.0,92,0.00,,,0.00,meteohub,2013-06-19 06:17:00,
2013-06-19 02:22:00,61.2,58.3,29.90,NW,309,1.0,2.0,90,0.00,,,0.00,meteohub,2013-06-19 06:22:00,
2013-06-19 02:27:00,61.2,58.5,29.90,NNW,327,0.0,3.0,91,0.00,,,0.00,meteohub,2013-06-19 06:27:00,
2013-06-19 02:32:00,61.2,58.3,29.90,NW,323,0.0,3.0,90,0.00,,,0.00,meteohub,2013-06-19 06:32:00,
2013-06-19 02:37:00,61.2,58.8,29.90,NNW,342,0.0,3.0,92,0.00,,,0.00,meteohub,2013-06-19 06:37:00,
2013-06-19 02:42:00,60.8,58.8,29.90,NNW,338,0.0,1.0,93,0.00,,,0.00,meteohub,2013-06-19 06:42:00,
2013-06-19 02:47:00,60.4,58.5,29.90,NNW,338,0.0,1.0,93,0.00,,,0.00,meteohub,2013-06-19 06:47:00,
2013-06-19 02:52:00,60.4,58.6,29.90,North,350,0.0,1.0,94,0.00,,,0.00,meteohub,2013-06-19 06:52:00,
2013-06-19 02:57:00,60.3,58.5,29.91,WSW,250,0.0,1.0,94,0.00,,,0.00,meteohub,2013-06-19 06:57:00,
2013-06-19 03:02:00,60.1,58.6,29.91,East,79,0.0,2.0,95,0.00,,,0.00,meteohub,2013-06-19 07:02:00,
2013-06-19 03:07:00,59.7,58.3,29.91,ENE,59,0.0,2.0,95,0.00,,,0.00,meteohub,2013-06-19 07:07:00,
2013-06-19 03:12:00,59.7,58.6,29.91,ENE,60,0.0,1.0,96,0.00,,,0.00,meteohub,2013-06-19 07:12:00,
2013-06-19 03:17:00,59.5,58.5,29.91,ENE,60,0.0,1.0,96,0.00,,,0.00,meteohub,2013-06-19 07:17:00,
2013-06-19 03:22:00,59.4,58.3,29.91,ENE,60,0.0,0.0,96,0.00,,,0.00,meteohub,2013-06-19 07:22:00,
2013-06-19 03:27:00,59.5,58.6,29.91,ENE,60,0.0,0.0,97,0.00,,,0.00,meteohub,2013-06-19 07:27:00,
2013-06-19 03:32:00,59.5,58.6,29.91,ENE,65,0.0,1.0,97,0.00,,,0.00,meteohub,2013-06-19 07:32:00,
2013-06-19 03:37:00,59.5,58.6,29.91,ENE,65,0.0,1.0,97,0.00,,,0.00,meteohub,2013-06-19 07:37:00,
2013-06-19 03:42:00,59.7,58.8,29.91,ENE,65,0.0,1.0,97,0.00,,,0.00,meteohub,2013-06-19 07:42:00,
2013-06-19 03:47:00,59.7,58.8,29.91,ENE,72,0.0,0.0,97,0.00,,,0.00,meteohub,2013-06-19 07:47:00,
2013-06-19 03:52:00,59.7,58.8,29.90,ENE,72,0.0,0.0,97,0.00,,,0.00,meteohub,2013-06-19 07:52:00,
2013-06-19 03:57:00,59.9,59.0,29.90,NE,47,0.0,0.0,97,0.00,,,0.00,meteohub,2013-06-19 07:57:00,
2013-06-19 04:02:00,60.1,59.2,29.90,NE,41,0.0,0.0,97,0.00,,,0.00,meteohub,2013-06-19 08:02:00,
2013-06-19 04:07:00,60.1,59.2,29.90,NE,43,0.0,0.0,97,0.00,,,0.00,meteohub,2013-06-19 08:07:00,
2013-06-19 04:12:00,60.1,59.2,29.91,SSE,151,0.0,1.0,97,0.00,,,0.00,meteohub,2013-06-19 08:12:00,
2013-06-19 04:17:00,59.9,59.0,29.91,SSE,150,0.0,1.0,97,0.00,,,0.00,meteohub,2013-06-19 08:17:00,
2013-06-19 04:22:00,59.9,59.0,29.90,SSE,150,0.0,1.0,97,0.00,,,0.00,meteohub,2013-06-19 08:22:00,
2013-06-19 04:27:00,59.9,59.0,29.90,SSE,151,0.0,0.0,97,0.00,,,0.00,meteohub,2013-06-19 08:27:00,
2013-06-19 04:32:00,59.7,58.8,29.90,SSE,150,0.0,0.0,97,0.00,,,0.00,meteohub,2013-06-19 08:32:00,
2013-06-19 04:37:00,59.7,58.8,29.90,SSE,150,0.0,0.0,97,0.00,,,0.00,meteohub,2013-06-19 08:37:00,
2013-06-19 04:42:00,59.9,59.4,29.90,SSE,151,0.0,0.0,98,0.00,,,0.00,meteohub,2013-06-19 08:42:00,
2013-06-19 04:47:00,59.2,58.3,29.90,WSW,256,0.0,1.0,97,0.00,,,0.00,meteohub,2013-06-19 08:47:00,
2013-06-19 04:52:00,59.2,58.3,29.90,WSW,256,0.0,1.0,97,0.00,,,0.00,meteohub,2013-06-19 08:52:00,
2013-06-19 07:18:00,59.5,59.0,29.96,North,-999,-999.0,-999.0,98,-99.99,,,0.00,meteohub,2013-06-19 11:18:00,
2013-06-19 07:23:00,59.9,59.4,29.96,North,-999,-999.0,-999.0,98,0.00,,,0.00,meteohub,2013-06-19 11:23:00,
2013-06-19 07:28:00,60.1,59.2,29.96,NNW,343,0.0,-999.0,97,0.00,,,0.00,meteohub,2013-06-19 11:28:00,
2013-06-19 07:33:00,60.4,59.4,29.97,NNW,342,0.0,1.0,96,0.00,,,0.00,meteohub,2013-06-19 11:33:00,
2013-06-19 07:38:00,60.8,59.7,29.97,NNW,341,0.0,1.0,96,0.00,,,0.00,meteohub,2013-06-19 11:38:00,
2013-06-19 07:43:00,61.3,60.4,29.97,NNW,342,0.0,1.0,97,0.00,,,0.00,meteohub,2013-06-19 11:43:00,
2013-06-19 07:48:00,61.5,60.1,29.97,NNW,348,0.0,0.0,95,0.00,,,0.00,meteohub,2013-06-19 11:48:00,
2013-06-19 07:53:00,61.9,60.4,29.97,NNW,348,0.0,0.0,95,0.00,,,0.00,meteohub,2013-06-19 11:53:00,
2013-06-19 07:58:00,62.2,60.4,29.97,NNW,348,0.0,0.0,94,0.00,,,0.00,meteohub,2013-06-19 11:58:00,
2013-06-19 08:03:00,62.4,60.6,29.98,North,3,0.0,0.0,94,0.00,,,0.00,meteohub,2013-06-19 12:03:00,
2013-06-19 08:08:00,62.8,61.0,29.98,North,1,0.0,1.0,94,0.00,,,0.00,meteohub,2013-06-19 12:08:00,
2013-06-19 08:13:00,62.8,60.8,29.98,NNE,23,0.0,1.0,93,0.00,,,0.00,meteohub,2013-06-19 12:13:00,
2013-06-19 08:18:00,62.8,60.8,29.98,NNE,23,0.0,1.0,93,0.00,,,0.00,meteohub,2013-06-19 12:18:00,
2013-06-19 08:23:00,63.1,61.3,29.98,NE,34,0.0,1.0,94,0.00,,,0.00,meteohub,2013-06-19 12:23:00,
2013-06-19 08:28:00,63.1,60.8,29.98,North,10,0.0,1.0,92,0.00,,,0.00,meteohub,2013-06-19 12:28:00,
2013-06-19 08:33:00,63.1,60.8,29.98,NNE,15,2.0,2.0,92,0.00,,,0.00,meteohub,2013-06-19 12:33:00,
2013-06-19 08:39:00,63.1,60.8,29.98,NNW,347,1.0,3.0,92,0.00,,,0.00,meteohub,2013-06-19 12:39:00,
2013-06-19 08:44:00,63.7,61.0,29.98,ENE,64,0.0,3.0,91,0.00,,,0.00,meteohub,2013-06-19 12:44:00,
2013-06-19 08:49:00,64.2,61.5,29.98,North,359,1.0,3.0,91,0.00,,,0.00,meteohub,2013-06-19 12:49:00,
2013-06-19 08:53:00,64.6,61.5,29.98,North,6,1.0,2.0,90,0.00,,,0.00,meteohub,2013-06-19 12:53:00,
2013-06-19 08:59:00,64.9,61.7,29.98,NNE,15,0.0,2.0,89,0.00,,,0.00,meteohub,2013-06-19 12:59:00,
2013-06-19 09:04:00,66.0,62.6,29.98,NNE,15,0.0,2.0,89,0.00,,,0.00,meteohub,2013-06-19 13:04:00,
2013-06-19 09:09:00,67.3,62.6,29.98,NNE,23,0.0,2.0,85,0.00,,,0.00,meteohub,2013-06-19 13:09:00,
2013-06-19 09:14:00,68.0,62.6,29.98,NE,44,0.0,2.0,83,0.00,,,0.00,meteohub,2013-06-19 13:14:00,
2013-06-19 09:19:00,68.5,63.1,29.98,ESE,115,0.0,2.0,83,0.00,,,0.00,meteohub,2013-06-19 13:19:00,
2013-06-19 09:24:00,69.3,63.1,29.99,SE,124,1.0,2.0,81,0.00,,,0.00,meteohub,2013-06-19 13:24:00,
2013-06-19 09:29:00,69.8,63.3,29.99,East,79,0.0,3.0,80,0.00,,,0.00,meteohub,2013-06-19 13:29:00,
2013-06-19 09:34:00,70.2,63.0,29.99,North,349,0.0,3.0,78,0.00,,,0.00,meteohub,2013-06-19 13:34:00,
2013-06-19 09:39:00,70.3,62.8,29.99,NNW,343,0.0,3.0,77,0.00,,,0.00,meteohub,2013-06-19 13:39:00,
2013-06-19 09:44:00,70.3,62.8,29.99,ENE,72,2.0,3.0,77,0.00,,,0.00,meteohub,2013-06-19 13:44:00,
2013-06-19 09:49:00,69.8,62.6,29.99,NNW,348,0.0,5.0,78,0.00,,,0.00,meteohub,2013-06-19 13:49:00,
2013-06-19 09:54:00,70.2,62.2,29.99,NE,51,0.0,5.0,76,0.00,,,0.00,meteohub,2013-06-19 13:54:00,
2013-06-19 09:59:00,70.0,62.1,29.99,NNE,20,2.0,5.0,76,0.00,,,0.00,meteohub,2013-06-19 13:59:00,
2013-06-19 10:04:00,70.0,62.4,29.98,NE,38,0.0,4.0,77,0.00,,,0.00,meteohub,2013-06-19 14:04:00,
2013-06-19 10:09:00,70.5,62.6,29.99,NNE,29,2.0,4.0,76,0.00,,,0.00,meteohub,2013-06-19 14:09:00,
2013-06-19 10:14:00,71.2,63.0,29.99,NW,321,2.0,4.0,75,0.00,,,0.00,meteohub,2013-06-19 14:14:00,
2013-06-19 10:19:00,72.1,63.3,29.99,East,95,1.0,3.0,74,0.00,,,0.00,meteohub,2013-06-19 14:19:00,
2013-06-19 10:24:00,71.4,61.9,29.99,NNE,12,1.0,3.0,72,0.00,,,0.00,meteohub,2013-06-19 14:24:00,
2013-06-19 10:29:00,72.0,62.4,29.99,ESE,105,2.0,5.0,72,0.00,,,0.00,meteohub,2013-06-19 14:29:00,
2013-06-19 10:34:00,72.9,63.0,29.99,NW,319,1.0,5.0,71,0.00,,,0.00,meteohub,2013-06-19 14:34:00,
2013-06-19 10:39:00,72.9,63.0,29.99,East,97,1.0,5.0,71,0.00,,,0.00,meteohub,2013-06-19 14:39:00,
2013-06-19 10:44:00,73.4,63.0,29.99,SSE,147,2.0,5.0,70,0.00,,,0.00,meteohub,2013-06-19 14:44:00,
2013-06-19 10:49:00,73.0,62.2,29.99,NW,320,1.0,5.0,69,0.00,,,0.00,meteohub,2013-06-19 14:49:00,
2013-06-19 10:54:00,73.8,63.3,29.99,NW,326,0.0,7.0,70,0.00,,,0.00,meteohub,2013-06-19 14:54:00,
2013-06-19 10:59:00,73.8,62.6,29.99,East,100,5.0,7.0,68,0.00,,,0.00,meteohub,2013-06-19 14:59:00,
2013-06-19 11:04:00,72.9,62.4,29.99,East,98,2.0,5.0,70,0.00,,,0.00,meteohub,2013-06-19 15:04:00,
2013-06-19 11:09:00,73.6,63.1,29.99,East,93,2.0,5.0,70,0.00,,,0.00,meteohub,2013-06-19 15:09:00,
2013-06-19 11:14:00,73.6,63.1,29.99,WNW,287,1.0,5.0,70,0.00,,,0.00,meteohub,2013-06-19 15:14:00,
2013-06-19 11:19:00,73.6,63.1,30.00,NNW,338,1.0,5.0,70,0.00,,,0.00,meteohub,2013-06-19 15:19:00,
2013-06-19 11:24:00,73.6,63.1,30.00,NNW,343,3.0,5.0,70,0.00,,,0.00,meteohub,2013-06-19 15:24:00,
2013-06-19 11:29:00,73.8,62.6,30.00,WSW,243,2.0,5.0,68,0.00,,,0.00,meteohub,2013-06-19 15:29:00,
2013-06-19 11:34:00,74.5,63.7,30.00,ENE,62,3.0,4.0,69,0.00,,,0.00,meteohub,2013-06-19 15:34:00,
2013-06-19 11:39:00,75.9,64.2,30.00,ESE,116,2.0,4.0,67,0.00,,,0.00,meteohub,2013-06-19 15:39:00,
2013-06-19 11:44:00,75.4,64.0,30.00,NW,319,1.0,4.0,68,0.00,,,0.00,meteohub,2013-06-19 15:44:00,
2013-06-19 11:49:00,75.4,63.7,30.00,North,11,5.0,5.0,67,0.00,,,0.00,meteohub,2013-06-19 15:49:00,
2013-06-19 11:54:00,75.0,63.3,30.00,NNW,342,0.0,5.0,67,0.00,,,0.00,meteohub,2013-06-19 15:54:00,
2013-06-19 11:59:00,75.6,63.0,30.00,NE,40,2.0,6.0,65,0.00,,,0.00,meteohub,2013-06-19 15:59:00,
2013-06-19 12:04:00,75.2,63.1,30.01,NW,320,2.0,6.0,66,0.00,,,0.00,meteohub,2013-06-19 16:04:00,
2013-06-19 12:09:00,75.7,64.4,30.00,NE,45,0.0,4.0,68,0.00,,,0.00,meteohub,2013-06-19 16:09:00,
2013-06-19 12:14:00,77.2,65.8,30.00,East,84,0.0,4.0,68,0.00,,,0.00,meteohub,2013-06-19 16:14:00,
2013-06-19 12:19:00,77.5,63.9,30.00,North,0,2.0,3.0,63,0.00,,,0.00,meteohub,2013-06-19 16:19:00,
2013-06-19 12:24:00,76.6,63.1,30.00,North,357,6.0,6.0,63,0.00,,,0.00,meteohub,2013-06-19 16:24:00,
2013-06-19 12:29:00,76.6,63.1,30.00,North,6,3.0,3.0,63,0.00,,,0.00,meteohub,2013-06-19 16:29:00,
2013-06-19 12:34:00,76.8,63.3,30.00,NNW,346,2.0,6.0,63,0.00,,,0.00,meteohub,2013-06-19 16:34:00,
2013-06-19 12:39:00,76.3,63.1,30.00,NNW,333,0.0,6.0,64,0.00,,,0.00,meteohub,2013-06-19 16:39:00,
2013-06-19 12:44:00,76.3,62.8,30.00,West,262,1.0,4.0,63,0.00,,,0.00,meteohub,2013-06-19 16:44:00,
2013-06-19 12:49:00,76.8,64.2,30.00,NNW,330,0.0,4.0,65,0.00,,,0.00,meteohub,2013-06-19 16:49:00,
2013-06-19 12:54:00,77.7,63.1,30.00,South,177,0.0,4.0,61,0.00,,,0.00,meteohub,2013-06-19 16:54:00,
2013-06-19 12:59:00,78.6,64.0,30.00,NNE,27,0.0,3.0,61,0.00,,,0.00,meteohub,2013-06-19 16:59:00,
2013-06-19 13:04:00,78.4,63.9,30.00,NNW,338,0.0,3.0,61,0.00,,,0.00,meteohub,2013-06-19 17:04:00,
2013-06-19 13:09:00,78.4,63.9,30.00,North,355,3.0,3.0,61,0.00,,,0.00,meteohub,2013-06-19 17:09:00,
2013-06-19 13:14:00,77.9,63.0,30.00,SE,143,1.0,4.0,60,0.00,,,0.00,meteohub,2013-06-19 17:14:00,
2013-06-19 13:19:00,78.4,63.0,30.00,NE,34,0.0,4.0,59,0.00,,,0.00,meteohub,2013-06-19 17:19:00,
2013-06-19 13:25:00,78.3,64.2,30.00,NNW,342,0.0,4.0,62,0.00,,,0.00,meteohub,2013-06-19 17:25:00,
2013-06-19 13:30:00,78.4,63.0,30.00,SE,129,1.0,4.0,59,0.00,,,0.00,meteohub,2013-06-19 17:30:00,
2013-06-19 13:34:00,78.4,64.8,30.00,North,3,0.0,3.0,63,0.00,,,0.00,meteohub,2013-06-19 17:34:00,
2013-06-19 13:39:00,78.3,61.7,30.00,NNE,15,2.0,4.0,57,0.00,,,0.00,meteohub,2013-06-19 17:39:00,
2013-06-19 13:45:00,77.9,61.5,30.00,North,4,0.0,4.0,57,0.00,,,0.00,meteohub,2013-06-19 17:45:00,
2013-06-19 13:50:00,78.1,62.1,30.00,NW,316,1.0,2.0,58,0.00,,,0.00,meteohub,2013-06-19 17:50:00,
2013-06-19 13:55:00,77.5,61.2,30.00,NE,52,2.0,3.0,57,0.00,,,0.00,meteohub,2013-06-19 17:55:00,
2013-06-19 14:00:00,77.0,60.6,30.00,North,354,0.0,3.0,57,0.00,,,0.00,meteohub,2013-06-19 18:00:00,
2013-06-19 14:05:00,77.2,62.2,30.00,North,357,0.0,4.0,60,0.00,,,0.00,meteohub,2013-06-19 18:05:00,
2013-06-19 14:10:00,77.4,61.9,30.00,ENE,69,0.0,4.0,59,0.00,,,0.00,meteohub,2013-06-19 18:10:00,
2013-06-19 14:15:00,77.7,62.2,30.00,NE,40,0.0,4.0,59,0.00,,,0.00,meteohub,2013-06-19 18:15:00,
2013-06-19 14:20:00,78.1,62.6,30.00,NNE,25,0.0,3.0,59,0.00,,,0.00,meteohub,2013-06-19 18:20:00,
2013-06-19 14:25:00,78.1,63.1,30.00,North,1,0.0,2.0,60,0.00,,,0.00,meteohub,2013-06-19 18:25:00,
2013-06-19 14:30:00,78.1,63.5,29.99,NE,50,0.0,2.0,61,0.00,,,0.00,meteohub,2013-06-19 18:30:00,
2013-06-19 14:35:00,77.7,63.7,29.99,ESE,108,2.0,2.0,62,0.00,,,0.00,meteohub,2013-06-19 18:35:00,
2013-06-19 14:40:00,77.0,63.5,29.99,NW,323,0.0,2.0,63,0.00,,,0.00,meteohub,2013-06-19 18:40:00,
2013-06-19 14:45:00,76.8,63.7,29.99,North,354,0.0,2.0,64,0.00,,,0.00,meteohub,2013-06-19 18:45:00,
2013-06-19 14:50:00,77.0,64.8,29.99,North,4,0.0,2.0,66,0.00,,,0.00,meteohub,2013-06-19 18:50:00,
2013-06-19 14:55:00,76.6,63.5,29.99,ENE,63,0.0,2.0,64,0.00,,,0.00,meteohub,2013-06-19 18:55:00,
2013-06-19 15:00:00,76.8,63.3,29.99,ENE,73,0.0,4.0,63,0.00,,,0.00,meteohub,2013-06-19 19:00:00,
2013-06-19 15:05:00,77.4,64.2,29.99,ENE,71,0.0,4.0,64,0.00,,,0.00,meteohub,2013-06-19 19:05:00,
2013-06-19 15:10:00,77.4,63.3,29.99,NNE,16,0.0,4.0,62,0.00,,,0.00,meteohub,2013-06-19 19:10:00,
2013-06-19 15:15:00,77.7,63.7,29.99,NNE,22,2.0,4.0,62,0.00,,,0.00,meteohub,2013-06-19 19:15:00,
2013-06-19 15:20:00,77.5,64.4,29.99,NNE,13,0.0,4.0,64,0.00,,,0.00,meteohub,2013-06-19 19:20:00,
2013-06-19 15:25:00,77.4,62.8,29.99,NNW,340,1.0,4.0,61,0.00,,,0.00,meteohub,2013-06-19 19:25:00,
2013-06-19 15:30:00,77.4,62.8,29.99,ENE,69,0.0,3.0,61,0.00,,,0.00,meteohub,2013-06-19 19:30:00,
2013-06-19 15:35:00,77.2,63.1,29.99,East,85,2.0,3.0,62,0.00,,,0.00,meteohub,2013-06-19 19:35:00,
2013-06-19 15:40:00,77.4,64.8,29.99,ENE,72,0.0,2.0,65,0.00,,,0.00,meteohub,2013-06-19 19:40:00,
2013-06-19 15:45:00,78.1,66.7,29.99,East,93,0.0,4.0,68,0.00,,,0.00,meteohub,2013-06-19 19:45:00,
2013-06-19 15:50:00,77.7,65.8,29.99,ESE,107,0.0,4.0,67,0.00,,,0.00,meteohub,2013-06-19 19:50:00,
2013-06-19 15:55:00,77.4,66.7,29.99,SE,125,3.0,3.0,70,0.00,,,0.00,meteohub,2013-06-19 19:55:00,
2013-06-19 16:00:00,76.6,66.2,29.98,SE,127,1.0,3.0,70,0.00,,,0.00,meteohub,2013-06-19 20:00:00,
2013-06-19 16:05:00,76.3,66.2,29.99,ESE,104,0.0,3.0,71,0.00,,,0.00,meteohub,2013-06-19 20:05:00,
2013-06-19 16:10:00,75.9,65.8,29.99,East,97,1.0,3.0,71,0.00,,,0.00,meteohub,2013-06-19 20:10:00,
2013-06-19 16:15:00,75.2,66.0,29.99,ESE,116,0.0,3.0,73,0.00,,,0.00,meteohub,2013-06-19 20:15:00,
2013-06-19 16:20:00,75.0,65.3,29.99,ESE,113,2.0,5.0,72,0.00,,,0.00,meteohub,2013-06-19 20:20:00,
2013-06-19 16:25:00,75.2,65.5,29.99,ESE,118,3.0,5.0,72,0.00,,,0.00,meteohub,2013-06-19 20:25:00,
2013-06-19 16:30:00,75.0,66.2,29.99,ESE,117,2.0,5.0,74,0.00,,,0.00,meteohub,2013-06-19 20:30:00,
2013-06-19 16:35:00,75.2,66.0,29.99,ENE,73,1.0,7.0,73,0.00,,,0.00,meteohub,2013-06-19 20:35:00,
2013-06-19 16:40:00,75.4,65.3,29.99,East,93,1.0,7.0,71,0.00,,,0.00,meteohub,2013-06-19 20:40:00,
2013-06-19 16:45:00,75.4,65.7,29.99,East,92,2.0,7.0,72,0.00,,,0.00,meteohub,2013-06-19 20:45:00,
2013-06-19 16:50:00,75.9,66.2,29.99,ENE,57,0.0,6.0,72,0.00,,,0.00,meteohub,2013-06-19 20:50:00,
2013-06-19 16:55:00,76.8,66.7,29.99,ESE,121,0.0,6.0,71,0.00,,,0.00,meteohub,2013-06-19 20:55:00,
2013-06-19 17:00:00,77.5,66.6,29.99,SE,128,0.0,4.0,69,0.00,,,0.00,meteohub,2013-06-19 21:00:00,
2013-06-19 17:05:00,77.7,65.8,29.99,East,90,1.0,4.0,67,0.00,,,0.00,meteohub,2013-06-19 21:05:00,
2013-06-19 17:10:00,78.1,64.9,29.99,SE,124,4.0,4.0,64,0.00,,,0.00,meteohub,2013-06-19 21:10:00,
2013-06-19 17:15:00,77.5,65.3,29.99,South,181,4.0,9.0,66,0.00,,,0.00,meteohub,2013-06-19 21:15:00,
2013-06-19 17:20:00,77.5,66.2,29.99,North,349,2.0,9.0,68,0.00,,,0.00,meteohub,2013-06-19 21:20:00,
2013-06-19 17:25:00,77.2,65.8,29.99,SSE,167,0.0,9.0,68,0.00,,,0.00,meteohub,2013-06-19 21:25:00,
2013-06-19 17:30:00,78.1,67.1,29.99,SE,144,4.0,6.0,69,0.00,,,0.00,meteohub,2013-06-19 21:30:00,
2013-06-19 17:35:00,77.5,65.7,29.99,ESE,105,1.0,6.0,67,0.00,,,0.00,meteohub,2013-06-19 21:35:00,
2013-06-19 17:40:00,76.3,64.6,29.99,East,91,5.0,5.0,67,0.00,,,0.00,meteohub,2013-06-19 21:40:00,
2013-06-19 17:45:00,75.2,64.8,29.99,ESE,111,1.0,5.0,70,0.00,,,0.00,meteohub,2013-06-19 21:45:00,
2013-06-19 17:50:00,74.8,65.1,29.99,ESE,117,0.0,5.0,72,0.00,,,0.00,meteohub,2013-06-19 21:50:00,
2013-06-19 17:55:00,74.1,65.3,29.99,NNW,330,0.0,5.0,74,0.00,,,0.00,meteohub,2013-06-19 21:55:00,
2013-06-19 18:00:00,73.8,65.3,29.99,NW,308,0.0,3.0,75,0.00,,,0.00,meteohub,2013-06-19 22:00:00,
2013-06-19 18:05:00,73.6,65.1,29.99,East,86,0.0,3.0,75,0.00,,,0.00,meteohub,2013-06-19 22:05:00,
2013-06-19 18:10:00,73.9,64.8,29.99,SE,128,0.0,2.0,73,0.00,,,0.00,meteohub,2013-06-19 22:10:00,
2013-06-19 18:15:00,75.0,64.6,29.99,SE,146,2.0,2.0,70,0.00,,,0.00,meteohub,2013-06-19 22:15:00,
2013-06-19 18:20:00,75.9,65.8,29.99,ENE,77,1.0,4.0,71,0.00,,,0.00,meteohub,2013-06-19 22:20:00,
2013-06-19 18:25:00,75.9,65.8,29.99,North,1,0.0,6.0,71,0.00,,,0.00,meteohub,2013-06-19 22:25:00,
2013-06-19 18:30:00,75.4,64.0,29.99,SE,126,1.0,6.0,68,0.00,,,0.00,meteohub,2013-06-19 22:30:00,
2013-06-19 18:35:00,74.5,64.4,29.99,SSE,166,0.0,2.0,71,0.00,,,0.00,meteohub,2013-06-19 22:35:00,
2013-06-19 18:40:00,73.8,64.6,30.00,SSE,166,0.0,2.0,73,0.00,,,0.00,meteohub,2013-06-19 22:40:00,
2013-06-19 18:45:00,72.9,64.4,30.00,SSE,162,0.0,1.0,75,0.00,,,0.00,meteohub,2013-06-19 22:45:00,
2013-06-19 18:50:00,72.0,64.4,30.00,SSE,166,0.0,0.0,77,0.00,,,0.00,meteohub,2013-06-19 22:50:00,
2013-06-19 18:55:00,71.4,64.2,30.00,ESE,121,0.0,1.0,78,0.00,,,0.00,meteohub,2013-06-19 22:55:00,
2013-06-19 19:00:00,71.4,64.9,30.00,ESE,122,0.0,1.0,80,0.00,,,0.00,meteohub,2013-06-19 23:00:00,
2013-06-19 19:05:00,71.4,64.2,30.00,ESE,121,0.0,1.0,78,0.00,,,0.00,meteohub,2013-06-19 23:05:00,
2013-06-19 19:10:00,71.4,64.6,30.00,ESE,119,0.0,1.0,79,0.00,,,0.00,meteohub,2013-06-19 23:10:00,
2013-06-19 19:15:00,71.4,64.6,30.01,ESE,122,0.0,0.0,79,0.00,,,0.00,meteohub,2013-06-19 23:15:00,
2013-06-19 19:20:00,72.0,65.5,30.01,ESE,121,0.0,0.0,80,0.00,,,0.00,meteohub,2013-06-19 23:20:00,
2013-06-19 19:25:00,72.3,65.1,30.01,NW,323,0.0,3.0,78,0.00,,,0.00,meteohub,2013-06-19 23:25:00,
2013-06-19 19:30:00,72.1,64.9,30.01,SE,144,0.0,5.0,78,0.00,,,0.00,meteohub,2013-06-19 23:30:00,
2013-06-19 19:35:00,71.8,64.6,30.01,SE,134,0.0,5.0,78,0.00,,,0.00,meteohub,2013-06-19 23:35:00,
2013-06-19 19:40:00,71.2,64.8,30.01,East,101,0.0,5.0,80,0.00,,,0.00,meteohub,2013-06-19 23:40:00,
2013-06-19 19:45:00,70.9,64.8,30.01,ESE,106,0.0,3.0,81,0.00,,,0.00,meteohub,2013-06-19 23:45:00,
2013-06-19 19:50:00,70.5,64.8,30.01,ESE,113,0.0,2.0,82,0.00,,,0.00,meteohub,2013-06-19 23:50:00,
2013-06-19 19:55:00,70.2,65.1,30.01,ESE,108,0.0,2.0,84,0.00,,,0.00,meteohub,2013-06-19 23:55:00,
2013-06-19 20:00:00,69.6,64.9,30.02,SW,219,0.0,3.0,85,0.00,,,0.00,meteohub,2013-06-20 00:00:00,
2013-06-19 20:05:00,69.4,64.8,30.02,ESE,109,0.0,3.0,85,0.00,,,0.00,meteohub,2013-06-20 00:05:00,
2013-06-19 20:10:00,69.3,64.9,30.02,ESE,108,0.0,3.0,86,0.00,,,0.00,meteohub,2013-06-20 00:10:00,
2013-06-19 20:15:00,68.9,64.9,30.02,ESE,109,0.0,3.0,87,0.00,,,0.00,meteohub,2013-06-20 00:15:00,
2013-06-19 20:20:00,68.5,64.8,30.02,ESE,109,0.0,1.0,88,0.00,,,0.00,meteohub,2013-06-20 00:20:00,
2013-06-19 20:25:00,68.2,64.8,30.03,ESE,122,0.0,0.0,89,0.00,,,0.00,meteohub,2013-06-20 00:25:00,
2013-06-19 20:30:00,67.6,64.6,30.03,ESE,121,0.0,0.0,90,0.00,,,0.00,meteohub,2013-06-20 00:30:00,
2013-06-19 20:35:00,67.5,64.8,30.03,ESE,104,0.0,0.0,91,0.00,,,0.00,meteohub,2013-06-20 00:35:00,
2013-06-19 20:41:00,67.3,64.6,30.03,ESE,104,0.0,1.0,91,0.00,,,0.00,meteohub,2013-06-20 00:41:00,
2013-06-19 20:46:00,66.7,64.4,30.03,ESE,104,0.0,1.0,92,0.00,,,0.00,meteohub,2013-06-20 00:46:00,
2013-06-19 20:51:00,66.6,64.2,30.04,ESE,104,0.0,0.0,92,0.00,,,0.00,meteohub,2013-06-20 00:51:00,
2013-06-19 20:56:00,66.2,64.0,30.04,ESE,104,0.0,0.0,93,0.00,,,0.00,meteohub,2013-06-20 00:56:00,
2013-06-19 21:00:00,66.0,64.2,30.04,ESE,104,0.0,0.0,94,0.00,,,0.00,meteohub,2013-06-20 01:00:00,
2013-06-19 21:06:00,65.8,64.0,30.04,ESE,104,0.0,0.0,94,0.00,,,0.00,meteohub,2013-06-20 01:06:00,
2013-06-19 21:11:00,65.7,63.9,30.04,ESE,104,0.0,0.0,94,0.00,,,0.00,meteohub,2013-06-20 01:11:00,
2013-06-19 21:16:00,65.1,63.3,30.04,ESE,104,0.0,0.0,94,0.00,,,0.00,meteohub,2013-06-20 01:16:00,
2013-06-19 21:21:00,64.9,63.1,30.04,ESE,104,0.0,0.0,94,0.00,,,0.00,meteohub,2013-06-20 01:21:00,
2013-06-19 21:26:00,64.9,63.9,30.04,WNW,297,0.0,1.0,96,0.00,,,0.00,meteohub,2013-06-20 01:26:00,
2013-06-19 21:31:00,64.8,63.7,30.04,NW,322,0.0,1.0,96,0.00,,,0.00,meteohub,2013-06-20 01:31:00,
2013-06-19 21:36:00,64.8,63.3,30.05,NW,312,0.0,1.0,95,0.00,,,0.00,meteohub,2013-06-20 01:36:00,
2013-06-19 21:41:00,64.4,63.0,30.05,NW,312,0.0,1.0,95,0.00,,,0.00,meteohub,2013-06-20 01:41:00,
2013-06-19 21:46:00,64.2,62.8,30.06,NW,309,0.0,1.0,95,0.00,,,0.00,meteohub,2013-06-20 01:46:00,
2013-06-19 21:51:00,63.9,62.8,30.06,West,276,0.0,0.0,96,0.00,,,0.00,meteohub,2013-06-20 01:51:00,
2013-06-19 21:56:00,63.9,62.8,30.06,West,278,0.0,1.0,96,0.00,,,0.00,meteohub,2013-06-20 01:56:00,
2013-06-19 22:01:00,63.7,62.6,30.07,West,281,0.0,1.0,96,0.00,,,0.00,meteohub,2013-06-20 02:01:00,
2013-06-19 22:06:00,63.5,62.4,30.07,West,262,0.0,1.0,96,0.00,,,0.00,meteohub,2013-06-20 02:06:00,
2013-06-19 22:11:00,63.3,62.2,30.08,SSW,194,0.0,1.0,96,0.00,,,0.00,meteohub,2013-06-20 02:11:00,
2013-06-19 22:16:00,63.1,62.2,30.08,SSW,196,0.0,1.0,97,0.00,,,0.00,meteohub,2013-06-20 02:16:00,
2013-06-19 22:21:00,63.0,62.1,30.08,SSW,196,0.0,1.0,97,0.00,,,0.00,meteohub,2013-06-20 02:21:00,
2013-06-19 22:26:00,62.8,61.9,30.08,SSW,194,0.0,0.0,97,0.00,,,0.00,meteohub,2013-06-20 02:26:00,
2013-06-19 22:31:00,62.6,61.7,30.08,SSW,194,0.0,0.0,97,0.00,,,0.00,meteohub,2013-06-20 02:31:00,
2013-06-19 22:36:00,62.4,61.5,30.09,SSW,194,0.0,0.0,97,0.00,,,0.00,meteohub,2013-06-20 02:36:00,
2013-06-19 22:41:00,62.4,61.9,30.09,SSW,194,0.0,0.0,98,0.00,,,0.00,meteohub,2013-06-20 02:41:00,
2013-06-19 22:46:00,62.2,61.7,30.09,SSW,194,0.0,0.0,98,0.00,,,0.00,meteohub,2013-06-20 02:46:00,
2013-06-19 22:51:00,62.1,61.5,30.09,SSW,194,0.0,0.0,98,0.00,,,0.00,meteohub,2013-06-20 02:51:00,
2013-06-19 22:56:00,61.9,61.3,30.09,SSW,194,0.0,0.0,98,0.00,,,0.00,meteohub,2013-06-20 02:56:00,
2013-06-19 23:01:00,61.9,61.3,30.09,SSW,194,0.0,0.0,98,0.00,,,0.00,meteohub,2013-06-20 03:01:00,
2013-06-19 23:06:00,61.5,61.0,30.09,SSW,194,0.0,0.0,98,0.00,,,0.00,meteohub,2013-06-20 03:06:00,
2013-06-19 23:11:00,61.3,60.8,30.09,SSW,194,0.0,0.0,98,0.00,,,0.00,meteohub,2013-06-20 03:11:00,
2013-06-19 23:16:00,61.3,60.8,30.09,SSW,211,0.0,0.0,98,0.00,,,0.00,meteohub,2013-06-20 03:16:00,
2013-06-19 23:21:00,61.3,60.8,30.10,SSW,211,0.0,0.0,98,0.00,,,0.00,meteohub,2013-06-20 03:21:00,
2013-06-19 23:26:00,61.3,60.8,30.10,SSW,210,0.0,0.0,98,0.00,,,0.00,meteohub,2013-06-20 03:26:00,
2013-06-19 23:31:00,61.2,60.6,30.10,SSW,210,0.0,0.0,98,0.00,,,0.00,meteohub,2013-06-20 03:31:00,
2013-06-19 23:36:00,61.0,60.4,30.10,SSW,210,0.0,0.0,98,0.00,,,0.00,meteohub,2013-06-20 03:36:00,
2013-06-19 23:41:00,61.0,60.4,30.10,SSW,210,0.0,0.0,98,0.00,,,0.00,meteohub,2013-06-20 03:41:00,
2013-06-19 23:46:00,60.6,60.1,30.10,SSW,210,0.0,0.0,98,0.00,,,0.00,meteohub,2013-06-20 03:46:00,
2013-06-19 23:51:00,60.6,60.1,30.10,SSW,210,0.0,0.0,98,0.00,,,0.00,meteohub,2013-06-20 03:51:00,
2013-06-19 23:56:00,60.4,59.9,30.10,SSW,210,0.0,0.0,98,0.00,,,0.00,meteohub,2013-06-20 03:56:00,